Villa Blanca, Puerto Rico
Current Conditions -  °F | °C
As of 9:56 PM on Monday 20 Oct 2014 (Local Time) from TJSJ Reporting Station
Scattered Clouds Scattered Clouds  
Wind Chill: 81°   Ceiling: Unl
Heat Index: 87°   Visibility: 10mi
Dew Point: 75°   Wind: 0mph
Humidity: 82%   Direction: NA
Pressure: 29.97"   Gusts: NA
Location:  18.3569°N, 66.0247°W
Report Text: TJSJ 210156Z 00000KT 10SM SCT028 27/24 A2997 RMK AO2 SLP146 T02720239
Loading
Personal Weather Stations






























Interactive Weather Map
Tropical Storm Tracking
New forecast layout! Learn more

10-Day Weather Forecast

Advertisements
Track Severe Weather on mobile